sensor_id;sensor_type;location;lat;lon;timestamp;pressure;altitude;pressure_sealevel;temperature;humidity
76478;BME280;65309;49.790;18.972;2023-05-10T00:02:57;96858.72;;;8.24;53.28
76478;BME280;65309;49.790;18.972;2023-05-10T00:07:59;96856.91;;;8.21;54.67
76478;BME280;65309;49.790;18.972;2023-05-10T00:13:01;96850.19;;;8.13;54.72
76478;BME280;65309;49.790;18.972;2023-05-10T00:18:05;96850.66;;;7.93;56.01
76478;BME280;65309;49.790;18.972;2023-05-10T00:23:07;96846.84;;;7.91;55.92
76478;BME280;65309;49.790;18.972;2023-05-10T00:28:09;96843.91;;;7.85;56.64
76478;BME280;65309;49.790;18.972;2023-05-10T00:33:12;96844.69;;;7.67;57.29
76478;BME280;65309;49.790;18.972;2023-05-10T00:38:14;96843.47;;;7.50;58.44
76478;BME280;65309;49.790;18.972;2023-05-10T00:43:16;96835.78;;;7.36;58.69
76478;BME280;65309;49.790;18.972;2023-05-10T00:48:20;96832.75;;;7.34;59.68
76478;BME280;65309;49.790;18.972;2023-05-10T00:53:24;96829.66;;;7.32;59.67
76478;BME280;65309;49.790;18.972;2023-05-10T00:58:27;96827.41;;;7.30;59.67
76478;BME280;65309;49.790;18.972;2023-05-10T01:03:32;96828.75;;;7.17;60.38
76478;BME280;65309;49.790;18.972;2023-05-10T01:08:34;96823.50;;;7.10;61.54
76478;BME280;65309;49.790;18.972;2023-05-10T01:13:38;96820.34;;;7.20;61.91
76478;BME280;65309;49.790;18.972;2023-05-10T01:18:42;96810.09;;;7.12;61.23
76478;BME280;65309;49.790;18.972;2023-05-10T01:24:00;96806.38;;;7.06;61.66
76478;BME280;65309;49.790;18.972;2023-05-10T01:29:15;96807.31;;;7.03;63.00
76478;BME280;65309;49.790;18.972;2023-05-10T01:34:25;96811.91;;;7.15;61.81
76478;BME280;65309;49.790;18.972;2023-05-10T01:39:32;96802.63;;;7.21;62.59
76478;BME280;65309;49.790;18.972;2023-05-10T01:44:40;96793.91;;;7.41;61.84
76478;BME280;65309;49.790;18.972;2023-05-10T01:49:49;96790.56;;;7.55;61.53
76478;BME280;65309;49.790;18.972;2023-05-10T01:54:55;96793.31;;;7.55;61.39
76478;BME280;65309;49.790;18.972;2023-05-10T01:59:59;96790.25;;;7.53;61.49
76478;BME280;65309;49.790;18.972;2023-05-10T02:05:05;96791.03;;;7.63;61.60
76478;BME280;65309;49.790;18.972;2023-05-10T02:10:09;96774.63;;;7.68;61.19
76478;BME280;65309;49.790;18.972;2023-05-10T02:15:12;96774.50;;;7.72;61.83
76478;BME280;65309;49.790;18.972;2023-05-10T02:20:18;96771.88;;;7.77;61.44
76478;BME280;65309;49.790;18.972;2023-05-10T02:25:22;96762.41;;;7.78;60.77
76478;BME280;65309;49.790;18.972;2023-05-10T02:30:25;96769.13;;;7.86;61.10
76478;BME280;65309;49.790;18.972;2023-05-10T02:35:29;96771.00;;;7.80;61.20
76478;BME280;65309;49.790;18.972;2023-05-10T02:40:33;96771.00;;;7.80;61.16
76478;BME280;65309;49.790;18.972;2023-05-10T02:45:36;96773.75;;;7.80;60.87
76478;BME280;65309;49.790;18.972;2023-05-10T02:50:44;96764.22;;;7.91;61.50
76478;BME280;65309;49.790;18.972;2023-05-10T02:55:52;96769.13;;;7.86;60.96
76478;BME280;65309;49.790;18.972;2023-05-10T03:00:54;96763.91;;;7.98;60.73
76478;BME280;65309;49.790;18.972;2023-05-10T03:05:57;96761.91;;;7.89;61.05
76478;BME280;65309;49.790;18.972;2023-05-10T03:11:16;96766.03;;;8.03;61.21
76478;BME280;65309;49.790;18.972;2023-05-10T03:16:27;96757.06;;;8.44;59.19
76478;BME280;65309;49.790;18.972;2023-05-10T03:21:32;96757.81;;;8.77;59.59
76478;BME280;65309;49.790;18.972;2023-05-10T03:26:37;96761.06;;;9.47;58.05
76478;BME280;65309;49.790;18.972;2023-05-10T03:31:40;96756.50;;;9.74;56.00
76478;BME280;65309;49.790;18.972;2023-05-10T03:36:43;96755.69;;;9.82;55.35
76478;BME280;65309;49.790;18.972;2023-05-10T03:41:45;96751.03;;;9.88;55.07
76478;BME280;65309;49.790;18.972;2023-05-10T03:46:47;96735.09;;;9.98;54.45
76478;BME280;65309;49.790;18.972;2023-05-10T03:51:51;96739.88;;;9.68;56.30
76478;BME280;65309;49.790;18.972;2023-05-10T03:56:53;96726.03;;;9.53;56.70
76478;BME280;65309;49.790;18.972;2023-05-10T04:01:55;96727.47;;;9.63;55.76
76478;BME280;65309;49.790;18.972;2023-05-10T04:06:58;96736.91;;;9.72;56.50
76478;BME280;65309;49.790;18.972;2023-05-10T04:12:00;96738.72;;;9.75;55.37
76478;BME280;65309;49.790;18.972;2023-05-10T04:17:04;96737.94;;;9.74;56.48
76478;BME280;65309;49.790;18.972;2023-05-10T04:22:07;96743.28;;;9.78;57.04
76478;BME280;65309;49.790;18.972;2023-05-10T04:27:09;96747.50;;;9.88;55.38
76478;BME280;65309;49.790;18.972;2023-05-10T04:32:11;96734.72;;;9.90;55.69
76478;BME280;65309;49.790;18.972;2023-05-10T04:37:14;96723.31;;;9.97;56.67
76478;BME280;65309;49.790;18.972;2023-05-10T04:42:16;96731.53;;;10.21;54.98
76478;BME280;65309;49.790;18.972;2023-05-10T04:47:18;96728.06;;;10.41;56.98
76478;BME280;65309;49.790;18.972;2023-05-10T04:52:22;96727.53;;;10.57;56.59
76478;BME280;65309;49.790;18.972;2023-05-10T04:57:24;96722.56;;;10.76;55.96
76478;BME280;65309;49.790;18.972;2023-05-10T05:02:26;96726.88;;;10.97;53.20
76478;BME280;65309;49.790;18.972;2023-05-10T05:07:29;96720.78;;;11.13;55.54
76478;BME280;65309;49.790;18.972;2023-05-10T05:12:32;96718.66;;;11.23;54.11
76478;BME280;65309;49.790;18.972;2023-05-10T05:17:34;96715.53;;;11.35;55.22
76478;BME280;65309;49.790;18.972;2023-05-10T05:22:37;96718.66;;;11.48;52.77
76478;BME280;65309;49.790;18.972;2023-05-10T05:27:39;96722.94;;;11.70;52.38
76478;BME280;65309;49.790;18.972;2023-05-10T05:32:41;96732.97;;;11.87;49.41
76478;BME280;65309;49.790;18.972;2023-05-10T05:37:45;96727.09;;;12.06;49.49
76478;BME280;65309;49.790;18.972;2023-05-10T05:42:47;96733.06;;;12.24;50.62
76478;BME280;65309;49.790;18.972;2023-05-10T05:47:49;96743.97;;;12.33;48.17
76478;BME280;65309;49.790;18.972;2023-05-10T05:52:52;96735.31;;;12.52;49.60
76478;BME280;65309;49.790;18.972;2023-05-10T05:57:54;96739.16;;;12.65;49.09
76478;BME280;65309;49.790;18.972;2023-05-10T06:02:56;96740.56;;;12.81;47.68
76478;BME280;65309;49.790;18.972;2023-05-10T06:08:00;96754.00;;;12.94;48.95
76478;BME280;65309;49.790;18.972;2023-05-10T06:13:03;96747.69;;;12.93;50.16
76478;BME280;65309;49.790;18.972;2023-05-10T06:18:05;96747.16;;;12.89;47.45
76478;BME280;65309;49.790;18.972;2023-05-10T06:23:09;96756.22;;;12.84;47.42
76478;BME280;65309;49.790;18.972;2023-05-10T06:28:11;96750.47;;;12.93;50.26
76478;BME280;65309;49.790;18.972;2023-05-10T06:33:13;96758.28;;;12.89;48.83
76478;BME280;65309;49.790;18.972;2023-05-10T06:38:16;96751.41;;;13.21;50.50
76478;BME280;65309;49.790;18.972;2023-05-10T06:43:18;96743.13;;;13.27;48.69
76478;BME280;65309;49.790;18.972;2023-05-10T06:48:20;96740.34;;;13.32;49.05
76478;BME280;65309;49.790;18.972;2023-05-10T06:53:24;96736.69;;;13.63;49.35
76478;BME280;65309;49.790;18.972;2023-05-10T06:58:26;96747.31;;;13.70;48.25
76478;BME280;65309;49.790;18.972;2023-05-10T07:03:28;96746.34;;;13.90;48.20
76478;BME280;65309;49.790;18.972;2023-05-10T07:08:31;96728.16;;;13.89;45.42
76478;BME280;65309;49.790;18.972;2023-05-10T07:13:33;96733.75;;;14.22;44.45
76478;BME280;65309;49.790;18.972;2023-05-10T07:18:36;96735.84;;;14.44;44.42
76478;BME280;65309;49.790;18.972;2023-05-10T07:23:39;96731.53;;;14.60;47.08
76478;BME280;65309;49.790;18.972;2023-05-10T07:28:44;96725.94;;;14.77;44.28
76478;BME280;65309;49.790;18.972;2023-05-10T07:33:47;96731.75;;;14.67;43.12
76478;BME280;65309;49.790;18.972;2023-05-10T07:38:50;96726.66;;;14.94;46.67
76478;BME280;65309;49.790;18.972;2023-05-10T07:43:52;96730.56;;;15.48;44.47
76478;BME280;65309;49.790;18.972;2023-05-10T07:48:54;96724.59;;;15.74;45.81
76478;BME280;65309;49.790;18.972;2023-05-10T07:53:58;96731.03;;;16.04;45.02
76478;BME280;65309;49.790;18.972;2023-05-10T07:59:00;96727.84;;;15.89;44.20
76478;BME280;65309;49.790;18.972;2023-05-10T08:04:03;96722.00;;;15.87;44.41
76478;BME280;65309;49.790;18.972;2023-05-10T08:09:07;96720.75;;;16.24;44.76
76478;BME280;65309;49.790;18.972;2023-05-10T08:14:09;96714.47;;;16.47;42.79
76478;BME280;65309;49.790;18.972;2023-05-10T08:19:11;96715.88;;;16.65;44.07
76478;BME280;65309;49.790;18.972;2023-05-10T08:24:14;96702.91;;;16.68;43.15
76478;BME280;65309;49.790;18.972;2023-05-10T08:29:17;96714.16;;;16.86;42.69
76478;BME280;65309;49.790;18.972;2023-05-10T08:34:19;96715.56;;;16.98;42.42
76478;BME280;65309;49.790;18.972;2023-05-10T08:39:22;96712.63;;;17.10;42.18
76478;BME280;65309;49.790;18.972;2023-05-10T08:44:32;96716.22;;;17.29;41.12
76478;BME280;65309;49.790;18.972;2023-05-10T08:49:36;96702.66;;;17.38;40.98
76478;BME280;65309;49.790;18.972;2023-05-10T08:54:41;96721.63;;;18.39;40.21
76478;BME280;65309;49.790;18.972;2023-05-10T08:59:43;96708.28;;;17.57;39.45
76478;BME280;65309;49.790;18.972;2023-05-10T09:04:45;96715.25;;;17.02;43.02
76478;BME280;65309;49.790;18.972;2023-05-10T09:09:49;96711.94;;;17.03;39.43
76478;BME280;65309;49.790;18.972;2023-05-10T09:14:52;96712.69;;;17.04;41.61
76478;BME280;65309;49.790;18.972;2023-05-10T09:19:59;96713.91;;;17.09;40.48
76478;BME280;65309;49.790;18.972;2023-05-10T09:25:07;96712.97;;;17.49;39.52
76478;BME280;65309;49.790;18.972;2023-05-10T09:30:10;96718.69;;;17.57;38.37
76478;BME280;65309;49.790;18.972;2023-05-10T09:35:19;96707.69;;;17.83;38.78
76478;BME280;65309;49.790;18.972;2023-05-10T09:40:23;96713.81;;;18.00;39.71
76478;BME280;65309;49.790;18.972;2023-05-10T09:45:28;96701.69;;;18.61;39.39
76478;BME280;65309;49.790;18.972;2023-05-10T09:50:30;96701.25;;;18.57;37.01
76478;BME280;65309;49.790;18.972;2023-05-10T09:55:41;96713.16;;;18.45;35.58
76478;BME280;65309;49.790;18.972;2023-05-10T10:00:46;96712.84;;;17.98;37.50
76478;BME280;65309;49.790;18.972;2023-05-10T10:05:49;96705.88;;;17.85;37.34
76478;BME280;65309;49.790;18.972;2023-05-10T10:10:53;96702.84;;;18.02;35.09
76478;BME280;65309;49.790;18.972;2023-05-10T10:15:55;96702.97;;;17.54;38.54
76478;BME280;65309;49.790;18.972;2023-05-10T10:20:57;96699.25;;;17.70;37.99
76478;BME280;65309;49.790;18.972;2023-05-10T10:26:01;96695.94;;;17.04;40.80
76478;BME280;65309;49.790;18.972;2023-05-10T10:31:18;96693.84;;;17.29;40.05
76478;BME280;65309;49.790;18.972;2023-05-10T10:36:22;96695.22;;;17.65;37.47
76478;BME280;65309;49.790;18.972;2023-05-10T10:41:29;96701.06;;;17.43;38.87
76478;BME280;65309;49.790;18.972;2023-05-10T10:46:34;96689.69;;;17.60;37.66
76478;BME280;65309;49.790;18.972;2023-05-10T10:51:36;96688.56;;;17.68;37.88
76478;BME280;65309;49.790;18.972;2023-05-10T10:56:40;96688.47;;;17.55;39.11
76478;BME280;65309;49.790;18.972;2023-05-10T11:01:43;96685.56;;;17.23;38.40
76478;BME280;65309;49.790;18.972;2023-05-10T11:06:46;96669.81;;;17.01;40.68
76478;BME280;65309;49.790;18.972;2023-05-10T11:11:50;96683.88;;;17.15;39.36
76478;BME280;65309;49.790;18.972;2023-05-10T11:16:53;96683.94;;;17.09;39.57
76478;BME280;65309;49.790;18.972;2023-05-10T11:22:11;96687.25;;;17.08;40.82
76478;BME280;65309;49.790;18.972;2023-05-10T11:27:16;96685.66;;;17.12;40.12
76478;BME280;65309;49.790;18.972;2023-05-10T11:32:19;96685.88;;;17.20;39.13
76478;BME280;65309;49.790;18.972;2023-05-10T11:37:21;96683.63;;;17.56;41.12
76478;BME280;65309;49.790;18.972;2023-05-10T11:42:24;96684.56;;;17.82;36.23
76478;BME280;65309;49.790;18.972;2023-05-10T11:47:26;96672.28;;;18.68;39.17
76478;BME280;65309;49.790;18.972;2023-05-10T11:52:28;96671.09;;;18.63;35.93
76478;BME280;65309;49.790;18.972;2023-05-10T11:57:32;96676.56;;;18.24;36.76
76478;BME280;65309;49.790;18.972;2023-05-10T12:02:34;96680.78;;;17.61;36.59
76478;BME280;65309;49.790;18.972;2023-05-10T12:07:36;96679.44;;;17.86;37.15
76478;BME280;65309;49.790;18.972;2023-05-10T12:12:41;96677.28;;;17.92;38.71
76478;BME280;65309;49.790;18.972;2023-05-10T12:17:46;96679.94;;;17.85;37.83
76478;BME280;65309;49.790;18.972;2023-05-10T12:22:52;96680.72;;;18.17;37.76
76478;BME280;65309;49.790;18.972;2023-05-10T12:27:58;96676.78;;;18.26;35.80
76478;BME280;65309;49.790;18.972;2023-05-10T12:33:07;96675.56;;;18.21;36.05
76478;BME280;65309;49.790;18.972;2023-05-10T12:38:24;96672.25;;;18.23;36.74
76478;BME280;65309;49.790;18.972;2023-05-10T12:43:28;96667.88;;;19.64;35.37
76478;BME280;65309;49.790;18.972;2023-05-10T12:48:30;96656.34;;;19.89;33.73
76478;BME280;65309;49.790;18.972;2023-05-10T12:53:33;96654.53;;;19.91;34.39
76478;BME280;65309;49.790;18.972;2023-05-10T12:58:36;96660.44;;;19.27;33.70
76478;BME280;65309;49.790;18.972;2023-05-10T13:03:38;96658.19;;;19.00;36.64
76478;BME280;65309;49.790;18.972;2023-05-10T13:08:40;96651.47;;;19.29;34.36
76478;BME280;65309;49.790;18.972;2023-05-10T13:13:43;96639.13;;;18.40;37.52
76478;BME280;65309;49.790;18.972;2023-05-10T13:18:45;96644.88;;;18.16;36.93
76478;BME280;65309;49.790;18.972;2023-05-10T13:23:47;96639.34;;;18.42;36.61
76478;BME280;65309;49.790;18.972;2023-05-10T13:28:51;96635.13;;;18.80;37.19
76478;BME280;65309;49.790;18.972;2023-05-10T13:33:53;96643.31;;;18.78;36.79
76478;BME280;65309;49.790;18.972;2023-05-10T13:38:55;96633.59;;;19.32;34.64
76478;BME280;65309;49.790;18.972;2023-05-10T13:43:59;96627.56;;;19.02;35.46
76478;BME280;65309;49.790;18.972;2023-05-10T13:49:01;96621.44;;;18.77;35.38
76478;BME280;65309;49.790;18.972;2023-05-10T13:54:03;96622.50;;;19.13;36.34
76478;BME280;65309;49.790;18.972;2023-05-10T13:59:07;96616.19;;;18.42;38.50
76478;BME280;65309;49.790;18.972;2023-05-10T14:04:09;96605.94;;;18.31;38.85
76478;BME280;65309;49.790;18.972;2023-05-10T14:09:12;96611.66;;;17.93;39.63
76478;BME280;65309;49.790;18.972;2023-05-10T14:14:15;96617.25;;;17.56;40.88
76478;BME280;65309;49.790;18.972;2023-05-10T14:19:18;96618.91;;;17.83;38.32
76478;BME280;65309;49.790;18.972;2023-05-10T14:24:20;96615.59;;;17.47;40.43
76478;BME280;65309;49.790;18.972;2023-05-10T14:29:23;96610.31;;;17.63;39.16
76478;BME280;65309;49.790;18.972;2023-05-10T14:34:25;96617.56;;;17.71;40.47
76478;BME280;65309;49.790;18.972;2023-05-10T14:39:27;96619.69;;;17.84;39.48
76478;BME280;65309;49.790;18.972;2023-05-10T14:44:33;96610.22;;;18.19;40.16
76478;BME280;65309;49.790;18.972;2023-05-10T14:49:35;96605.94;;;18.31;39.21
76478;BME280;65309;49.790;18.972;2023-05-10T14:54:37;96614.09;;;18.29;41.16
76478;BME280;65309;49.790;18.972;2023-05-10T14:59:40;96613.88;;;18.14;40.62
76478;BME280;65309;49.790;18.972;2023-05-10T15:04:43;96613.06;;;18.32;39.38
76478;BME280;65309;49.790;18.972;2023-05-10T15:09:45;96608.06;;;18.25;39.57
76478;BME280;65309;49.790;18.972;2023-05-10T15:14:49;96605.88;;;18.05;40.46
76478;BME280;65309;49.790;18.972;2023-05-10T15:19:51;96616.94;;;17.97;38.91
76478;BME280;65309;49.790;18.972;2023-05-10T15:24:53;96610.84;;;18.12;39.06
76478;BME280;65309;49.790;18.972;2023-05-10T15:29:56;96612.13;;;17.79;41.03
76478;BME280;65309;49.790;18.972;2023-05-10T15:35:01;96614.66;;;17.96;42.19
76478;BME280;65309;49.790;18.972;2023-05-10T15:40:05;96612.66;;;17.77;39.52
76478;BME280;65309;49.790;18.972;2023-05-10T15:45:10;96609.13;;;17.77;41.41
76478;BME280;65309;49.790;18.972;2023-05-10T15:50:14;96611.91;;;17.77;40.72
76478;BME280;65309;49.790;18.972;2023-05-10T15:55:16;96616.66;;;17.82;40.23
76478;BME280;65309;49.790;18.972;2023-05-10T16:00:20;96615.06;;;17.86;39.47
76478;BME280;65309;49.790;18.972;2023-05-10T16:05:22;96612.44;;;17.38;41.27
76478;BME280;65309;49.790;18.972;2023-05-10T16:10:24;96618.47;;;17.23;42.71
76478;BME280;65309;49.790;18.972;2023-05-10T16:15:28;96616.97;;;17.22;42.21
76478;BME280;65309;49.790;18.972;2023-05-10T16:20:31;96618.19;;;16.84;43.08
76478;BME280;65309;49.790;18.972;2023-05-10T16:25:34;96618.38;;;17.10;44.63
76478;BME280;65309;49.790;18.972;2023-05-10T16:30:38;96619.25;;;16.99;44.12
76478;BME280;65309;49.790;18.972;2023-05-10T16:35:40;96614.22;;;16.98;44.81
76478;BME280;65309;49.790;18.972;2023-05-10T16:40:42;96615.25;;;16.95;44.82
76478;BME280;65309;49.790;18.972;2023-05-10T16:45:45;96616.34;;;17.11;46.08
76478;BME280;65309;49.790;18.972;2023-05-10T16:50:47;96612.59;;;16.84;47.72
76478;BME280;65309;49.790;18.972;2023-05-10T16:55:49;96613.94;;;16.53;47.39
76478;BME280;65309;49.790;18.972;2023-05-10T17:00:53;96625.78;;;16.35;47.38
76478;BME280;65309;49.790;18.972;2023-05-10T17:05:55;96621.91;;;16.14;51.05
76478;BME280;65309;49.790;18.972;2023-05-10T17:11:00;96627.63;;;15.97;52.33
76478;BME280;65309;49.790;18.972;2023-05-10T17:16:03;96623.75;;;15.70;53.14
76478;BME280;65309;49.790;18.972;2023-05-10T17:21:05;96628.97;;;15.44;55.31
76478;BME280;65309;49.790;18.972;2023-05-10T17:26:08;96630.63;;;15.11;54.64
76478;BME280;65309;49.790;18.972;2023-05-10T17:31:11;96642.41;;;14.77;57.89
76478;BME280;65309;49.790;18.972;2023-05-10T17:36:13;96633.09;;;14.29;61.33
76478;BME280;65309;49.790;18.972;2023-05-10T17:41:15;96637.66;;;13.99;61.73
76478;BME280;65309;49.790;18.972;2023-05-10T17:46:19;96641.44;;;13.74;63.09
76478;BME280;65309;49.790;18.972;2023-05-10T17:51:21;96643.94;;;13.50;63.09
76478;BME280;65309;49.790;18.972;2023-05-10T17:56:23;96655.97;;;13.24;64.14
76478;BME280;65309;49.790;18.972;2023-05-10T18:01:27;96653.63;;;13.06;63.70
76478;BME280;65309;49.790;18.972;2023-05-10T18:06:29;96662.09;;;12.86;65.57
76478;BME280;65309;49.790;18.972;2023-05-10T18:11:33;96665.38;;;12.90;64.82
76478;BME280;65309;49.790;18.972;2023-05-10T18:16:36;96678.44;;;12.73;65.30
76478;BME280;65309;49.790;18.972;2023-05-10T18:21:38;96673.53;;;12.57;66.18
76478;BME280;65309;49.790;18.972;2023-05-10T18:26:41;96671.19;;;12.44;66.47
76478;BME280;65309;49.790;18.972;2023-05-10T18:31:45;96674.66;;;12.33;67.04
76478;BME280;65309;49.790;18.972;2023-05-10T18:36:47;96676.59;;;12.22;67.99
76478;BME280;65309;49.790;18.972;2023-05-10T18:41:49;96672.50;;;12.17;68.09
76478;BME280;65309;49.790;18.972;2023-05-10T18:46:52;96680.28;;;12.13;66.46
76478;BME280;65309;49.790;18.972;2023-05-10T18:51:55;96690.75;;;12.29;61.45
76478;BME280;65309;49.790;18.972;2023-05-10T18:56:57;96688.34;;;12.42;62.33
76478;BME280;65309;49.790;18.972;2023-05-10T19:02:01;96687.09;;;12.43;61.35
76478;BME280;65309;49.790;18.972;2023-05-10T19:07:03;96696.91;;;12.44;60.95
76478;BME280;65309;49.790;18.972;2023-05-10T19:12:05;96693.53;;;12.66;59.83
76478;BME280;65309;49.790;18.972;2023-05-10T19:17:09;96694.00;;;12.59;59.73
76478;BME280;65309;49.790;18.972;2023-05-10T19:22:11;96705.03;;;12.54;61.01
76478;BME280;65309;49.790;18.972;2023-05-10T19:27:13;96702.31;;;12.59;57.04
76478;BME280;65309;49.790;18.972;2023-05-10T19:32:18;96698.66;;;12.79;56.28
76478;BME280;65309;49.790;18.972;2023-05-10T19:37:20;96707.03;;;12.90;55.32
76478;BME280;65309;49.790;18.972;2023-05-10T19:42:22;96710.34;;;12.94;54.88
76478;BME280;65309;49.790;18.972;2023-05-10T19:47:25;96719.91;;;12.87;55.69
76478;BME280;65309;49.790;18.972;2023-05-10T19:52:27;96725.44;;;12.87;55.05
76478;BME280;65309;49.790;18.972;2023-05-10T19:57:29;96720.38;;;12.86;55.07
76478;BME280;65309;49.790;18.972;2023-05-10T20:02:33;96719.41;;;12.95;53.78
76478;BME280;65309;49.790;18.972;2023-05-10T20:07:35;96717.69;;;13.03;55.21
76478;BME280;65309;49.790;18.972;2023-05-10T20:12:37;96726.78;;;12.98;54.68
76478;BME280;65309;49.790;18.972;2023-05-10T20:17:41;96717.72;;;13.08;53.44
76478;BME280;65309;49.790;18.972;2023-05-10T20:22:43;96715.97;;;13.05;53.94
76478;BME280;65309;49.790;18.972;2023-05-10T20:27:45;96719.50;;;13.06;54.46
76478;BME280;65309;49.790;18.972;2023-05-10T20:32:49;96720.56;;;13.14;54.14
76478;BME280;65309;49.790;18.972;2023-05-10T20:37:51;96720.81;;;13.10;53.69
76478;BME280;65309;49.790;18.972;2023-05-10T20:42:53;96716.97;;;13.02;54.18
76478;BME280;65309;49.790;18.972;2023-05-10T20:47:56;96724.00;;;12.98;54.47
76478;BME280;65309;49.790;18.972;2023-05-10T20:52:59;96735.00;;;12.81;55.33
76478;BME280;65309;49.790;18.972;2023-05-10T20:58:01;96727.78;;;12.58;57.26
76478;BME280;65309;49.790;18.972;2023-05-10T21:03:07;96727.38;;;12.39;59.59
76478;BME280;65309;49.790;18.972;2023-05-10T21:08:09;96736.97;;;12.38;56.38
76478;BME280;65309;49.790;18.972;2023-05-10T21:13:11;96737.44;;;12.36;58.07
76478;BME280;65309;49.790;18.972;2023-05-10T21:18:14;96736.91;;;12.01;60.31
76478;BME280;65309;49.790;18.972;2023-05-10T21:23:16;96738.75;;;11.84;63.75
76478;BME280;65309;49.790;18.972;2023-05-10T21:28:18;96744.66;;;11.51;66.29
76478;BME280;65309;49.790;18.972;2023-05-10T21:33:22;96748.25;;;11.37;67.67
76478;BME280;65309;49.790;18.972;2023-05-10T21:38:26;96742.06;;;11.07;68.67
76478;BME280;65309;49.790;18.972;2023-05-10T21:43:28;96740.28;;;11.24;64.75
76478;BME280;65309;49.790;18.972;2023-05-10T21:48:31;96748.56;;;10.84;70.12
76478;BME280;65309;49.790;18.972;2023-05-10T21:53:34;96747.00;;;12.04;57.79
76478;BME280;65309;49.790;18.972;2023-05-10T21:58:36;96754.88;;;11.45;65.29
76478;BME280;65309;49.790;18.972;2023-05-10T22:03:40;96751.34;;;10.84;68.19
76478;BME280;65309;49.790;18.972;2023-05-10T22:08:42;96752.75;;;10.15;71.93
76478;BME280;65309;49.790;18.972;2023-05-10T22:13:44;96757.13;;;9.92;72.20
76478;BME280;65309;49.790;18.972;2023-05-10T22:18:48;96763.31;;;9.73;73.40
76478;BME280;65309;49.790;18.972;2023-05-10T22:23:50;96763.97;;;9.44;75.06
76478;BME280;65309;49.790;18.972;2023-05-10T22:28:52;96770.31;;;9.35;75.21
76478;BME280;65309;49.790;18.972;2023-05-10T22:33:55;96775.22;;;9.16;76.60
76478;BME280;65309;49.790;18.972;2023-05-10T22:38:57;96781.91;;;9.01;76.81
76478;BME280;65309;49.790;18.972;2023-05-10T22:44:00;96783.50;;;8.93;76.22
76478;BME280;65309;49.790;18.972;2023-05-10T22:49:03;96778.34;;;9.09;77.14
76478;BME280;65309;49.790;18.972;2023-05-10T22:54:05;96778.63;;;9.11;75.79
76478;BME280;65309;49.790;18.972;2023-05-10T22:59:08;96777.03;;;8.96;77.45
76478;BME280;65309;49.790;18.972;2023-05-10T23:04:11;96779.56;;;8.85;79.20
76478;BME280;65309;49.790;18.972;2023-05-10T23:09:13;96789.69;;;8.78;79.29
76478;BME280;65309;49.790;18.972;2023-05-10T23:14:15;96790.63;;;8.75;79.48
76478;BME280;65309;49.790;18.972;2023-05-10T23:19:19;96791.00;;;8.59;80.63
76478;BME280;65309;49.790;18.972;2023-05-10T23:24:21;96792.84;;;8.53;79.81
76478;BME280;65309;49.790;18.972;2023-05-10T23:29:23;96792.25;;;8.49;80.70
76478;BME280;65309;49.790;18.972;2023-05-10T23:34:28;96790.47;;;8.37;81.01
76478;BME280;65309;49.790;18.972;2023-05-10T23:39:30;96785.63;;;8.14;83.22
76478;BME280;65309;49.790;18.972;2023-05-10T23:44:32;96781.03;;;8.02;83.65
76478;BME280;65309;49.790;18.972;2023-05-10T23:49:35;96791.69;;;8.27;81.91
76478;BME280;65309;49.790;18.972;2023-05-10T23:54:38;96788.03;;;8.21;82.53
76478;BME280;65309;49.790;18.972;2023-05-10T23:59:40;96788.81;;;8.21;82.50
